Time;durP1;ratioP1;P1;durP2;ratioP2;P2;SDS_P1;SDS_P2;PMS_P1;PMS_P2;Temp;Humidity;BMP_temperature;BMP_pressure;BME280_temperature;BME280_humidity;BME280_pressure;Samples;Min_cycle;Max_cycle;Signal;HPM_P1;HPM_P2
2022/10/11 00:02:07;;;;;;;7.53;6.83;;;;;;;16.08;81.94;100303.53;5059002;28;20193;-69
2022/10/11 00:04:34;;;;;;;10.97;7.23;;;;;;;16.11;82.09;100308.44;5051981;28;20196;-69
2022/10/11 00:07:01;;;;;;;9.53;6.90;;;;;;;16.10;82.21;100304.13;5051576;28;20741;-71
2022/10/11 00:09:28;;;;;;;7.77;7.10;;;;;;;16.12;82.73;100310.13;5052244;28;20192;-70
2022/10/11 00:11:55;;;;;;;7.93;7.23;;;;;;;16.09;82.66;100297.94;5052068;28;20289;-70
2022/10/11 00:14:22;;;;;;;11.90;7.23;;;;;;;16.01;82.42;100286.66;5051597;28;20679;-71
2022/10/11 00:16:49;;;;;;;8.77;7.33;;;;;;;16.11;82.77;100297.72;5051513;28;20196;-70
2022/10/11 00:19:17;;;;;;;7.93;7.47;;;;;;;16.13;82.76;100298.34;5051489;28;20250;-70
2022/10/11 00:21:44;;;;;;;8.33;7.63;;;;;;;16.13;82.64;100295.69;5060046;28;20800;-70
2022/10/11 00:24:12;;;;;;;11.30;8.17;;;;;;;16.14;82.96;100300.00;5071796;28;20659;-70
2022/10/11 00:26:39;;;;;;;8.67;7.77;;;;;;;15.82;83.99;100302.56;5071640;28;20188;-70
2022/10/11 00:29:05;;;;;;;9.47;8.10;;;;;;;15.89;84.13;100307.91;5071827;28;20246;-69
2022/10/11 00:31:32;;;;;;;10.77;8.67;;;;;;;15.93;84.05;100311.81;5071797;28;20196;-69
2022/10/11 00:33:59;;;;;;;11.47;9.33;;;;;;;15.80;84.18;100301.13;5071479;28;20192;-70
2022/10/11 00:36:27;;;;;;;12.17;10.37;;;;;;;15.77;84.29;100291.66;5071663;28;20262;-70
2022/10/11 00:38:54;;;;;;;11.33;10.20;;;;;;;15.78;84.58;100289.81;5071685;28;20245;-70
2022/10/11 00:41:21;;;;;;;13.90;10.80;;;;;;;15.75;85.08;100283.00;5071528;28;20305;-70
2022/10/11 00:43:48;;;;;;;12.37;10.20;;;;;;;15.74;84.66;100280.53;5071654;28;20196;-69
2022/10/11 00:46:30;;;;;;;12.33;10.20;;;;;;;15.56;85.55;100273.16;5071151;28;20200;-70
2022/10/11 00:49:02;;;;;;;12.43;10.20;;;;;;;15.62;85.95;100285.72;5071630;28;20260;-70
2022/10/11 00:51:46;;;;;;;12.37;11.17;;;;;;;15.48;86.29;100270.69;5071247;28;20652;-70
2022/10/11 00:54:16;;;;;;;11.97;10.80;;;;;;;15.32;87.55;100281.81;5071553;28;20188;-70
2022/10/11 00:56:47;;;;;;;15.13;11.93;;;;;;;15.41;87.14;100274.44;5071174;28;20184;-72
2022/10/11 00:59:19;;;;;;;14.67;12.00;;;;;;;15.47;87.19;100274.41;5071549;28;20181;-70
2022/10/11 01:01:45;;;;;;;15.47;12.00;;;;;;;15.56;86.84;100270.47;5074864;28;20254;-70
2022/10/11 01:04:12;;;;;;;15.27;11.07;;;;;;;15.63;86.19;100273.97;5074724;28;20659;-70
2022/10/11 01:06:41;;;;;;;13.70;11.60;;;;;;;15.71;86.41;100273.75;5074646;28;20250;-70
2022/10/11 01:09:09;;;;;;;14.73;10.67;;;;;;;15.75;86.30;100272.31;5074952;28;20699;-70
2022/10/11 01:11:39;;;;;;;11.47;10.30;;;;;;;15.76;85.92;100279.28;5075029;28;20232;-71
2022/10/11 01:14:27;;;;;;;14.23;11.60;;;;;;;15.83;85.57;100280.09;5074780;28;20188;-69
2022/10/11 01:17:00;;;;;;;11.43;10.30;;;;;;;15.82;85.95;100265.03;5074288;28;20648;-69
2022/10/11 01:19:44;;;;;;;12.73;11.43;;;;;;;15.75;85.90;100276.81;5074875;28;20188;-71
2022/10/11 01:22:34;;;;;;;12.43;10.70;;;;;;;15.81;86.05;100271.44;5074188;28;20210;-70
2022/10/11 01:25:21;;;;;;;13.57;10.77;;;;;;;15.86;85.67;100268.94;5074284;28;20184;-69
2022/10/11 01:28:02;;;;;;;12.60;11.23;;;;;;;15.88;85.43;100269.56;5074218;28;20648;-69
2022/10/11 01:30:32;;;;;;;11.10;10.10;;;;;;;15.90;85.34;100266.69;5074837;28;20245;-69
2022/10/11 01:33:14;;;;;;;18.77;10.60;;;;;;;15.83;85.81;100256.00;5074750;28;20616;-69
2022/10/11 01:35:48;;;;;;;12.10;9.90;;;;;;;15.88;85.28;100266.91;5074806;28;20253;-69
2022/10/11 01:38:21;;;;;;;11.80;9.83;;;;;;;15.80;85.32;100253.72;5074527;28;20187;-69
2022/10/11 01:40:52;;;;;;;14.90;10.47;;;;;;;15.77;85.85;100251.47;5074694;28;20277;-69
2022/10/11 01:43:22;;;;;;;11.37;10.37;;;;;;;15.77;85.82;100243.44;5074464;28;20184;-69
2022/10/11 01:45:54;;;;;;;12.33;10.13;;;;;;;15.82;85.50;100240.94;5073907;28;20207;-70
2022/10/11 01:48:21;;;;;;;11.57;10.50;;;;;;;15.63;85.90;100236.47;5073900;28;20192;-70
2022/10/11 01:50:50;;;;;;;14.40;10.33;;;;;;;15.76;86.10;100239.09;5074248;28;20195;-69
2022/10/11 01:53:40;;;;;;;12.20;9.70;;;;;;;15.79;86.07;100244.06;5073727;28;20655;-69
2022/10/11 01:56:21;;;;;;;10.40;9.47;;;;;;;15.80;85.73;100236.81;5070917;28;20198;-69
2022/10/11 01:58:58;;;;;;;13.37;9.10;;;;;;;15.86;85.66;100246.72;5074040;28;20188;-70
2022/10/11 02:01:36;;;;;;;10.40;9.40;;;;;;;15.76;85.87;100239.09;5067159;28;20204;-70
2022/10/11 02:04:10;;;;;;;15.23;10.27;;;;;;;15.72;86.10;100240.56;5053925;28;20188;-71
2022/10/11 02:06:47;;;;;;;10.97;9.87;;;;;;;15.68;86.47;100225.94;5054763;28;20188;-70
2022/10/11 02:09:22;;;;;;;10.67;9.47;;;;;;;15.81;86.27;100233.13;5053879;28;20212;-70
2022/10/11 02:11:49;;;;;;;10.23;8.83;;;;;;;15.77;86.28;100224.69;5053451;28;20236;-70
2022/10/11 02:14:19;;;;;;;10.30;9.40;;;;;;;15.77;85.91;100239.94;5053750;28;20193;-70
2022/10/11 02:16:52;;;;;;;11.13;9.30;;;;;;;15.78;86.40;100233.53;5054561;28;20185;-69
2022/10/11 02:19:24;;;;;;;10.37;9.40;;;;;;;15.86;85.98;100242.16;5053630;28;20238;-70
2022/10/11 02:21:55;;;;;;;11.53;9.70;;;;;;;15.89;85.74;100233.69;5063144;28;20273;-70
2022/10/11 02:24:26;;;;;;;10.07;8.47;;;;;;;15.92;85.73;100245.84;5073468;28;20188;-70
2022/10/11 02:26:55;;;;;;;9.90;8.90;;;;;;;15.90;85.75;100243.38;5073225;28;20192;-70
2022/10/11 02:29:24;;;;;;;11.87;8.67;;;;;;;15.90;85.82;100243.38;5073349;28;20192;-70
2022/10/11 02:31:54;;;;;;;12.63;8.77;;;;;;;15.94;85.85;100249.97;5074214;28;20191;-70
2022/10/11 02:34:24;;;;;;;9.97;8.90;;;;;;;15.99;85.85;100246.66;5073297;28;20192;-70
2022/10/11 02:36:58;;;;;;;11.47;9.67;;;;;;;16.01;85.77;100243.75;5073564;28;20534;-70
2022/10/11 02:39:29;;;;;;;13.10;9.50;;;;;;;16.04;85.37;100248.72;5073121;28;20697;-70
2022/10/11 02:42:00;;;;;;;12.90;9.33;;;;;;;15.99;85.59;100246.66;5073589;28;20288;-69
2022/10/11 02:44:31;;;;;;;9.37;8.67;;;;;;;16.02;85.13;100240.88;5072873;28;20234;-69
2022/10/11 02:47:00;;;;;;;12.27;9.40;;;;;;;16.03;85.19;100242.50;5072852;28;20180;-69
2022/10/11 02:49:29;;;;;;;10.20;9.20;;;;;;;16.04;84.97;100243.34;5072926;28;20196;-69
2022/10/11 02:51:56;;;;;;;12.43;9.47;;;;;;;16.04;84.88;100243.34;5072637;28;20195;-69
2022/10/11 02:54:23;;;;;;;10.97;9.03;;;;;;;16.04;84.79;100232.63;5072823;28;20200;-69
2022/10/11 02:56:49;;;;;;;14.27;9.97;;;;;;;16.08;84.71;100236.53;5072848;28;20257;-70
2022/10/11 02:59:16;;;;;;;10.27;9.30;;;;;;;16.09;84.78;100235.50;5072388;28;20667;-71
2022/10/11 03:01:43;;;;;;;10.97;9.40;;;;;;;16.10;84.19;100231.75;5072237;28;20757;-70
2022/10/11 03:04:11;;;;;;;20.93;14.17;;;;;;;15.97;84.27;100235.34;5072718;28;20260;-72
2022/10/11 03:06:38;;;;;;;10.53;9.50;;;;;;;15.94;84.49;100233.88;5072730;28;20253;-71
2022/10/11 03:09:04;;;;;;;15.73;10.43;;;;;;;15.97;84.44;100232.66;5072506;28;20241;-70
2022/10/11 03:11:31;;;;;;;10.87;9.37;;;;;;;16.01;84.58;100233.03;5072590;28;20265;-70
2022/10/11 03:13:58;;;;;;;11.50;9.40;;;;;;;16.01;84.13;100227.69;5072188;28;20663;-70
2022/10/11 03:16:24;;;;;;;13.30;10.17;;;;;;;15.91;83.90;100233.50;5072620;28;20188;-70
2022/10/11 03:18:51;;;;;;;10.77;9.67;;;;;;;15.89;84.69;100231.03;5072118;28;20188;-70
2022/10/11 03:21:19;;;;;;;13.03;9.43;;;;;;;15.94;84.71;100227.72;5071963;28;20772;-70
2022/10/11 03:23:46;;;;;;;16.00;9.30;;;;;;;15.94;83.95;100238.44;5072000;28;20196;-69
2022/10/11 03:26:13;;;;;;;10.00;9.20;;;;;;;15.83;84.39;100226.53;5072350;28;20200;-69
2022/10/11 03:28:39;;;;;;;11.33;10.23;;;;;;;15.78;84.78;100234.38;5072026;28;20188;-70
2022/10/11 03:31:06;;;;;;;14.80;9.63;;;;;;;15.77;85.13;100227.34;5072359;28;20203;-70
2022/10/11 03:33:33;;;;;;;10.30;8.57;;;;;;;15.76;85.15;100230.25;5072241;28;20261;-70
2022/10/11 03:35:59;;;;;;;12.30;9.67;;;;;;;15.78;84.86;100223.66;5072011;28;20623;-69
2022/10/11 03:38:28;;;;;;;12.70;10.07;;;;;;;15.80;85.34;100221.59;5071953;28;20221;-69
2022/10/11 03:40:54;;;;;;;14.20;9.73;;;;;;;15.72;85.59;100215.63;5073043;28;20275;-70
2022/10/11 03:43:21;;;;;;;16.50;9.40;;;;;;;15.69;85.53;100218.75;5072162;28;20245;-70
2022/10/11 03:45:48;;;;;;;12.00;9.50;;;;;;;15.72;86.11;100221.81;5071858;28;20740;-69
2022/10/11 03:48:15;;;;;;;13.40;9.97;;;;;;;15.75;85.98;100229.44;5072049;28;20195;-69
2022/10/11 03:50:42;;;;;;;9.70;8.80;;;;;;;15.76;85.88;100225.72;5072133;28;20211;-69
2022/10/11 03:53:09;;;;;;;13.80;9.07;;;;;;;15.80;85.70;100221.59;5072159;28;20261;-71
2022/10/11 03:55:39;;;;;;;10.43;8.90;;;;;;;15.77;85.40;100211.28;5072119;28;20192;-70
2022/10/11 03:58:05;;;;;;;32.67;10.47;;;;;;;15.79;85.64;100214.59;5072080;28;20267;-72
2022/10/11 04:00:32;;;;;;;26.17;9.80;;;;;;;15.80;85.70;100215.38;5071899;28;20195;-71
2022/10/11 04:02:59;;;;;;;15.30;8.87;;;;;;;15.83;85.57;100210.44;5051420;28;20695;-70
2022/10/11 04:05:26;;;;;;;14.23;9.13;;;;;;;15.88;85.39;100217.03;5051883;28;20192;-69
2022/10/11 04:07:53;;;;;;;12.57;9.33;;;;;;;15.85;85.12;100219.09;5051978;28;20200;-70
2022/10/11 04:10:20;;;;;;;20.90;8.83;;;;;;;15.81;85.65;100212.50;5051656;28;20232;-69
2022/10/11 04:12:48;;;;;;;16.77;9.40;;;;;;;15.81;85.02;100212.50;5051556;28;20239;-69
2022/10/11 04:15:15;;;;;;;19.43;10.73;;;;;;;15.83;85.38;100209.63;5051405;28;20622;-69
2022/10/11 04:17:42;;;;;;;21.50;11.17;;;;;;;15.76;85.38;100209.66;5051820;28;20192;-69
2022/10/11 04:20:09;;;;;;;27.63;11.23;;;;;;;15.77;85.58;100213.16;5051812;28;20189;-70
2022/10/11 04:22:37;;;;;;;31.83;10.07;;;;;;;15.75;85.01;100207.16;5067282;28;20212;-70
2022/10/11 04:25:04;;;;;;;21.60;9.97;;;;;;;15.73;85.26;100210.06;5071297;28;20196;-69
2022/10/11 04:27:31;;;;;;;15.57;9.43;;;;;;;15.76;85.69;100198.09;5071441;28;20659;-70
2022/10/11 04:29:59;;;;;;;17.87;9.50;;;;;;;15.78;85.54;100204.06;5071842;28;20283;-70
2022/10/11 04:32:26;;;;;;;20.47;10.40;;;;;;;15.76;85.26;100206.13;5071360;28;20204;-70
2022/10/11 04:34:53;;;;;;;24.53;10.23;;;;;;;15.78;85.32;100212.13;5072456;28;20199;-70
2022/10/11 04:37:20;;;;;;;16.40;9.57;;;;;;;15.81;85.05;100207.16;5075903;28;20249;-70
2022/10/11 04:39:47;;;;;;;36.43;10.67;;;;;;;15.83;84.67;100214.97;5075435;28;20187;-69
2022/10/11 04:42:13;;;;;;;23.80;10.00;;;;;;;15.82;84.66;100218.69;5071663;28;20216;-69
2022/10/11 04:44:40;;;;;;;23.33;10.50;;;;;;;15.83;85.13;100215.81;5055070;28;20579;-69
2022/10/11 04:47:08;;;;;;;28.57;11.00;;;;;;;15.79;84.86;100224.47;5054920;28;20254;-69
2022/10/11 04:49:35;;;;;;;22.23;10.47;;;;;;;15.78;85.21;100218.31;5055114;28;20258;-69
2022/10/11 04:52:01;;;;;;;16.47;9.70;;;;;;;15.78;85.17;100218.31;5054877;28;20204;-69
2022/10/11 04:54:28;;;;;;;24.40;9.17;;;;;;;15.72;85.85;100218.31;5055060;28;20192;-69
2022/10/11 04:56:55;;;;;;;18.43;9.07;;;;;;;15.86;86.39;100220.72;5054795;28;20490;-70
2022/10/11 04:59:21;;;;;;;15.20;9.77;;;;;;;16.01;85.19;100217.81;5055007;28;20253;-70
2022/10/11 05:01:48;;;;;;;12.27;8.67;;;;;;;16.10;84.64;100227.25;5054606;28;20212;-71
2022/10/11 05:04:16;;;;;;;25.50;9.40;;;;;;;16.18;84.46;100223.47;5053625;28;20197;-72
2022/10/11 05:06:43;;;;;;;15.57;9.67;;;;;;;16.24;83.18;100227.97;5055375;28;20645;-72
2022/10/11 05:09:10;;;;;;;15.63;9.00;;;;;;;16.25;82.99;100230.44;5054780;28;20265;-72
2022/10/11 05:11:37;;;;;;;31.17;10.23;;;;;;;16.22;83.35;100214.81;5055115;28;20235;-71
2022/10/11 05:14:04;;;;;;;19.33;10.40;;;;;;;16.31;82.69;100221.56;5054497;28;20207;-71
2022/10/11 05:16:30;;;;;;;17.33;9.83;;;;;;;16.41;82.25;100229.16;5054989;28;20224;-71
2022/10/11 05:18:57;;;;;;;19.40;10.07;;;;;;;16.48;81.83;100219.19;5054839;28;20199;-72
2022/10/11 05:21:27;;;;;;;11.87;9.40;;;;;;;16.57;80.81;100224.09;5053841;28;20252;-73
2022/10/11 05:23:55;;;;;;;13.60;10.07;;;;;;;16.57;80.06;100224.09;5054326;28;20246;-72
2022/10/11 05:26:22;;;;;;;14.70;8.93;;;;;;;16.58;80.82;100198.91;5056840;28;20192;-72
2022/10/11 05:28:49;;;;;;;14.20;9.73;;;;;;;16.59;79.76;100215.84;5054608;28;20210;-72
2022/10/11 05:31:17;;;;;;;14.83;8.23;;;;;;;16.69;80.20;100206.25;5057023;28;20657;-75
2022/10/11 05:33:43;;;;;;;12.13;9.03;;;;;;;16.80;80.27;100218.16;5062275;28;20298;-72
2022/10/11 05:36:11;;;;;;;14.90;8.17;;;;;;;16.94;80.01;100215.13;5056572;28;20250;-72
2022/10/11 05:38:39;;;;;;;16.07;8.63;;;;;;;17.13;78.86;100218.69;5054297;28;20279;-73
2022/10/11 05:41:07;;;;;;;15.87;8.77;;;;;;;17.32;78.79;100220.38;5053834;28;20609;-71
2022/10/11 05:43:35;;;;;;;15.50;9.03;;;;;;;17.22;77.36;100182.44;5054779;28;20223;-72
2022/10/11 05:46:01;;;;;;;12.20;8.17;;;;;;;17.59;77.43;100221.75;5053396;28;20195;-72
2022/10/11 05:48:28;;;;;;;12.73;9.60;;;;;;;17.72;76.99;100227.00;5053529;28;20197;-70
2022/10/11 05:50:59;;;;;;;16.57;8.13;;;;;;;17.83;76.66;100232.44;5053450;28;20549;-70
2022/10/11 05:53:26;;;;;;;17.83;7.70;;;;;;;17.80;76.29;100240.94;5070571;28;20631;-68
2022/10/11 05:55:54;;;;;;;15.73;8.60;;;;;;;17.94;76.50;100239.78;5062316;28;20202;-69
2022/10/11 05:58:21;;;;;;;13.40;8.87;;;;;;;17.99;75.13;100241.78;5051434;28;20618;-69
2022/10/11 06:00:47;;;;;;;10.57;8.73;;;;;;;17.67;76.14;100242.97;5054330;28;20197;-70
2022/10/11 06:03:15;;;;;;;28.17;10.53;;;;;;;17.50;76.58;100252.66;5071628;28;20226;-72
2022/10/11 06:05:41;;;;;;;11.93;8.07;;;;;;;17.36;77.30;100245.75;5072990;28;20250;-69
2022/10/11 06:08:09;;;;;;;13.00;8.43;;;;;;;17.32;77.54;100245.34;5072845;28;20195;-69
2022/10/11 06:10:38;;;;;;;11.03;7.57;;;;;;;17.36;77.33;100251.91;5072413;28;20228;-70
2022/10/11 06:13:07;;;;;;;14.07;7.03;;;;;;;17.43;77.59;100249.22;5071339;28;20702;-71
2022/10/11 06:15:34;;;;;;;17.67;8.07;;;;;;;17.23;77.80;100256.63;5073603;28;20547;-71
2022/10/11 06:18:01;;;;;;;245.43;23.00;;;;;;;17.10;78.62;100249.50;5073372;28;20635;-70
2022/10/11 06:20:28;;;;;;;14.57;8.07;;;;;;;17.00;79.23;100251.03;5073228;28;20188;-69
2022/10/11 06:22:54;;;;;;;15.47;7.53;;;;;;;17.04;79.24;100257.59;5070304;28;20219;-69
2022/10/11 06:25:21;;;;;;;15.37;7.00;;;;;;;17.03;78.97;100246.03;5064297;28;20276;-70
2022/10/11 06:27:48;;;;;;;11.73;8.03;;;;;;;16.98;79.33;100234.31;5063445;28;20622;-70
2022/10/11 06:30:16;;;;;;;10.83;7.40;;;;;;;17.07;79.29;100251.78;5061593;28;20200;-70
2022/10/11 06:32:43;;;;;;;13.87;7.77;;;;;;;17.14;79.17;100257.91;5063804;28;20189;-71
2022/10/11 06:35:10;;;;;;;10.87;8.40;;;;;;;17.19;79.20;100258.09;5061959;28;20246;-71
2022/10/11 06:37:37;;;;;;;15.63;8.20;;;;;;;17.28;78.96;100254.09;5061152;28;20188;-72
2022/10/11 06:40:05;;;;;;;16.90;8.20;;;;;;;17.29;78.64;100255.72;5061675;28;20185;-68
2022/10/11 06:42:32;;;;;;;9.83;6.57;;;;;;;17.24;79.54;100259.09;5062544;28;20208;-68
2022/10/11 06:44:58;;;;;;;16.40;7.57;;;;;;;17.29;79.65;100261.94;5063407;28;20188;-70
2022/10/11 06:47:26;;;;;;;11.67;6.63;;;;;;;17.36;78.98;100264.56;5062361;28;20242;-71
2022/10/11 06:49:53;;;;;;;10.50;7.57;;;;;;;17.39;79.17;100264.13;5055644;28;20189;-70
2022/10/11 06:52:20;;;;;;;8.87;6.50;;;;;;;17.15;80.04;100264.94;5058162;28;20276;-71
2022/10/11 06:54:46;;;;;;;12.47;6.77;;;;;;;17.17;79.97;100270.91;5061667;28;20196;-71
2022/10/11 06:57:13;;;;;;;10.60;6.43;;;;;;;17.12;80.21;100270.75;5057818;28;20200;-71
2022/10/11 06:59:40;;;;;;;7.47;6.67;;;;;;;17.08;80.79;100269.53;5059063;28;20198;-71
2022/10/11 07:02:07;;;;;;;18.23;7.30;;;;;;;17.09;80.43;100266.63;5061057;28;20757;-71
2022/10/11 07:04:35;;;;;;;9.00;6.20;;;;;;;17.12;80.62;100265.38;5071277;28;20256;-71
2022/10/11 07:07:02;;;;;;;12.90;6.93;;;;;;;17.08;80.97;100261.50;5069106;28;20223;-68
2022/10/11 07:09:29;;;;;;;12.37;7.23;;;;;;;17.17;80.31;100258.31;5065871;28;20193;-68
2022/10/11 07:11:56;;;;;;;9.83;6.73;;;;;;;17.26;80.67;100256.16;5052632;28;20321;-68
2022/10/11 07:14:24;;;;;;;13.60;7.73;;;;;;;17.36;80.15;100262.66;5052273;28;20200;-67
2022/10/11 07:16:50;;;;;;;16.77;7.50;;;;;;;17.46;80.13;100251.47;5052370;28;20195;-67
2022/10/11 07:19:17;;;;;;;11.20;7.67;;;;;;;17.46;79.59;100251.47;5052219;28;20257;-65
2022/10/11 07:21:45;;;;;;;8.87;7.37;;;;;;;17.39;79.41;100261.44;5056676;28;20625;-68
2022/10/11 07:24:12;;;;;;;11.73;8.23;;;;;;;17.13;80.59;100250.91;5052318;28;20302;-71
2022/10/11 07:26:39;;;;;;;7.67;7.07;;;;;;;17.06;81.10;100255.53;5069631;28;20701;-69
2022/10/11 07:29:05;;;;;;;11.20;7.97;;;;;;;17.14;81.64;100255.22;5069876;28;20257;-70
2022/10/11 07:31:32;;;;;;;10.10;8.57;;;;;;;17.19;81.14;100245.47;5052931;28;20248;-69
2022/10/11 07:33:59;;;;;;;16.97;7.87;;;;;;;17.28;80.94;100248.72;5062554;28;20203;-69
2022/10/11 07:36:26;;;;;;;10.87;7.93;;;;;;;17.28;80.98;100254.91;5062983;28;20671;-68
2022/10/11 07:38:54;;;;;;;13.27;6.83;;;;;;;17.20;80.78;100254.38;5052241;28;20251;-68
2022/10/11 07:41:20;;;;;;;11.40;7.70;;;;;;;17.14;81.08;100250.69;5066208;28;20226;-70
2022/10/11 07:43:48;;;;;;;11.70;7.80;;;;;;;16.99;81.82;100249.38;5071740;28;20273;-68
2022/10/11 07:46:16;;;;;;;17.47;8.27;;;;;;;17.00;82.38;100253.69;5072236;28;20193;-68
2022/10/11 07:48:42;;;;;;;14.97;7.70;;;;;;;16.98;82.16;100248.56;5071690;28;20646;-67
2022/10/11 07:51:11;;;;;;;10.43;8.17;;;;;;;17.10;82.31;100251.34;5072031;28;20257;-68
2022/10/11 07:53:39;;;;;;;12.17;7.80;;;;;;;17.05;82.08;100248.50;5071696;28;20209;-67
2022/10/11 07:56:08;;;;;;;14.63;8.60;;;;;;;17.23;81.77;100256.63;5071113;28;20196;-67
2022/10/11 07:58:35;;;;;;;8.50;7.37;;;;;;;17.34;81.60;100240.59;5072098;28;20195;-69
2022/10/11 08:01:01;;;;;;;10.10;6.70;;;;;;;17.37;81.19;100236.66;5067381;28;20615;-68
2022/10/11 08:03:28;;;;;;;8.13;7.47;;;;;;;17.50;81.19;100244.59;5051030;28;20645;-69
2022/10/11 08:05:55;;;;;;;13.83;7.70;;;;;;;17.69;80.02;100240.88;5051796;28;20189;-70
2022/10/11 08:08:21;;;;;;;10.83;6.67;;;;;;;17.55;80.39;100239.38;5050193;28;20254;-69
2022/10/11 08:10:48;;;;;;;13.17;6.53;;;;;;;17.66;79.82;100244.00;5052388;28;20224;-68
2022/10/11 08:13:16;;;;;;;7.47;6.47;;;;;;;17.54;80.24;100245.78;5054437;28;20201;-70
2022/10/11 08:15:43;;;;;;;9.17;5.33;;;;;;;17.63;80.41;100247.13;5055567;28;20193;-70
2022/10/11 08:18:09;;;;;;;8.40;4.90;;;;;;;17.67;79.49;100242.97;5054387;28;20195;-67
2022/10/11 08:20:38;;;;;;;13.50;5.63;;;;;;;17.55;80.68;100242.88;5055551;28;20259;-68
2022/10/11 08:23:05;;;;;;;8.60;5.43;;;;;;;17.77;79.03;100246.78;5059924;28;20303;-68
2022/10/11 08:25:36;;;;;;;8.83;5.13;;;;;;;17.93;78.96;100237.31;5064444;28;20269;-68
2022/10/11 08:28:03;;;;;;;7.70;5.83;;;;;;;18.17;78.66;100241.75;5075389;28;20230;-69
2022/10/11 08:30:31;;;;;;;9.03;5.30;;;;;;;18.01;78.10;100239.69;5061231;28;20203;-69
2022/10/11 08:32:58;;;;;;;5.83;5.20;;;;;;;18.06;77.98;100243.34;5055572;28;20197;-68
2022/10/11 08:35:25;;;;;;;5.87;5.13;;;;;;;18.24;77.86;100239.78;5055378;28;20190;-69
2022/10/11 08:37:52;;;;;;;14.47;4.20;;;;;;;18.50;77.85;100240.28;5055113;28;20662;-80
2022/10/11 08:40:21;;;;;;;8.97;3.70;;;;;;;18.97;76.62;100235.81;5055155;28;20192;-78
2022/10/11 08:42:57;;;;;;;7.00;4.80;;;;;;;19.52;72.82;100256.84;5055274;28;20338;-78
2022/10/11 08:45:32;;;;;;;5.23;4.00;;;;;;;19.59;72.33;100249.47;5055540;28;20191;-77
2022/10/11 08:48:08;;;;;;;8.87;4.00;;;;;;;19.96;70.60;100252.69;5054945;28;20184;-77
2022/10/11 08:50:35;;;;;;;13.07;4.73;;;;;;;20.06;69.70;100253.72;5054963;28;20657;-77
2022/10/11 08:53:07;;;;;;;7.53;5.13;;;;;;;20.21;68.90;100253.22;5062055;28;20202;-78
2022/10/11 08:55:40;;;;;;;10.73;5.43;;;;;;;20.24;68.53;100250.06;5066773;28;20546;-79
2022/10/11 08:58:13;;;;;;;14.73;5.70;;;;;;;20.50;68.65;100254.91;5052371;28;20246;-78
2022/10/11 09:00:43;;;;;;;8.57;5.87;;;;;;;20.88;66.83;100252.34;5054097;28;20242;-74
2022/10/11 09:03:23;;;;;;;6.47;5.30;;;;;;;21.12;66.18;100247.63;5051513;28;20684;-75
2022/10/11 09:06:00;;;;;;;11.20;5.03;;;;;;;21.40;65.49;100251.03;5054970;28;20189;-75
2022/10/11 09:08:34;;;;;;;14.20;5.43;;;;;;;21.75;64.42;100262.41;5054490;28;20234;-75
2022/10/11 09:11:09;;;;;;;10.40;5.80;;;;;;;22.02;63.16;100257.91;5054730;28;20313;-82
2022/10/11 09:14:00;;;;;;;7.60;6.50;;;;;;;22.29;61.36;100256.06;5054816;28;20188;-83
2022/10/11 09:16:41;;;;;;;8.87;6.17;;;;;;;22.52;60.15;100250.41;5053859;28;20189;-78
2022/10/11 09:19:47;;;;;;;10.70;7.17;;;;;;;22.58;59.75;100246.66;5054449;28;20227;-68
2022/10/11 09:22:21;;;;;;;8.30;7.50;;;;;;;22.34;59.64;100247.19;5041128;28;20200;-67
2022/10/11 09:25:00;;;;;;;10.90;7.37;;;;;;;21.96;60.58;100239.16;5057067;28;20274;-70
2022/10/11 09:27:30;;;;;;;8.23;6.97;;;;;;;21.85;61.78;100238.19;5075099;28;20242;-68
2022/10/11 09:30:02;;;;;;;7.97;7.40;;;;;;;21.85;61.64;100232.78;5064798;28;20189;-69
2022/10/11 09:32:35;;;;;;;8.97;8.30;;;;;;;21.85;61.49;100237.38;5054707;28;20192;-71
2022/10/11 09:35:11;;;;;;;20.57;9.53;;;;;;;21.79;61.41;100232.97;5053923;28;20185;-70
2022/10/11 09:37:45;;;;;;;13.60;8.30;;;;;;;21.64;61.47;100235.44;5053906;28;20644;-70
2022/10/11 09:40:25;;;;;;;9.70;8.67;;;;;;;21.59;62.32;100238.06;5055245;28;20179;-68
2022/10/11 09:42:51;;;;;;;9.83;8.67;;;;;;;21.60;61.40;100234.31;5054485;28;20242;-68
2022/10/11 09:45:20;;;;;;;8.97;8.17;;;;;;;21.57;61.67;100232.94;5053386;28;20189;-68
2022/10/11 09:47:51;;;;;;;12.10;9.10;;;;;;;21.53;61.73;100236.38;5053860;28;20663;-71
2022/10/11 09:50:21;;;;;;;10.53;9.43;;;;;;;21.64;61.29;100228.13;5053972;28;20648;-68
2022/10/11 09:52:49;;;;;;;51.77;11.87;;;;;;;21.71;60.82;100231.53;5051978;28;20192;-70
2022/10/11 09:55:31;;;;;;;11.50;9.37;;;;;;;21.77;60.77;100227.00;5051782;28;20615;-70
2022/10/11 09:57:58;;;;;;;14.37;9.87;;;;;;;21.70;60.98;100216.38;5053911;28;20188;-68
2022/10/11 10:00:26;;;;;;;17.17;10.73;;;;;;;21.84;60.82;100209.50;5054249;28;20192;-68
2022/10/11 10:02:56;;;;;;;14.70;11.00;;;;;;;21.84;60.20;100208.72;5072981;28;20200;-68
2022/10/11 10:05:24;;;;;;;13.77;9.93;;;;;;;21.84;61.17;100198.69;5074744;28;20196;-68
2022/10/11 10:08:00;;;;;;;15.87;10.63;;;;;;;21.87;59.70;100202.75;5073394;28;20192;-67
2022/10/11 10:10:32;;;;;;;12.97;10.37;;;;;;;21.95;59.66;100202.31;5073567;28;20227;-66
2022/10/11 10:13:02;;;;;;;13.17;10.40;;;;;;;22.07;59.30;100200.31;5073547;28;20199;-71
2022/10/11 10:15:30;;;;;;;11.17;10.07;;;;;;;22.14;59.45;100203.66;5073777;28;20196;-67
2022/10/11 10:17:59;;;;;;;13.77;10.23;;;;;;;22.22;58.92;100195.88;5073585;28;20283;-67
2022/10/11 10:20:30;;;;;;;12.07;11.07;;;;;;;22.37;57.45;100196.03;5073806;28;20647;-68
2022/10/11 10:22:57;;;;;;;11.97;11.00;;;;;;;22.41;56.44;100191.75;5059016;28;20231;-70
2022/10/11 10:25:30;;;;;;;40.83;12.97;;;;;;;22.39;57.31;100184.97;5060926;28;20192;-70
2022/10/11 10:27:59;;;;;;;31.03;12.73;;;;;;;22.33;57.46;100191.41;5073110;28;20180;-72
2022/10/11 10:30:25;;;;;;;18.30;12.03;;;;;;;22.25;57.61;100183.75;5059572;28;20250;-69
2022/10/11 10:32:57;;;;;;;13.27;11.33;;;;;;;21.97;58.53;100176.66;5052718;28;20196;-69
2022/10/11 10:35:31;;;;;;;22.37;12.47;;;;;;;21.90;58.83;100176.03;5053400;28;20201;-68
2022/10/11 10:38:08;;;;;;;65.43;16.53;;;;;;;21.90;58.74;100167.94;5071343;28;20248;-70
2022/10/11 10:40:41;;;;;;;12.83;11.57;;;;;;;21.97;57.79;100171.25;5071530;28;20186;-67
2022/10/11 10:43:14;;;;;;;13.83;12.50;;;;;;;22.11;58.24;100167.09;5072479;28;20187;-67
2022/10/11 10:46:00;;;;;;;13.27;12.07;;;;;;;22.24;57.75;100163.97;5072423;28;20683;-69
2022/10/11 10:48:34;;;;;;;14.37;12.23;;;;;;;22.36;56.32;100163.81;5072589;28;20192;-67
2022/10/11 10:51:09;;;;;;;14.20;12.23;;;;;;;22.50;56.36;100165.06;5072736;28;20245;-68
2022/10/11 10:53:42;;;;;;;44.80;15.70;;;;;;;22.47;56.36;100163.69;5071552;28;20257;-67
2022/10/11 10:56:13;;;;;;;19.20;12.60;;;;;;;22.31;56.16;100167.28;5063900;28;20184;-68
2022/10/11 10:58:52;;;;;;;16.07;12.93;;;;;;;22.37;56.71;100168.97;5069433;28;20257;-67
2022/10/11 11:01:24;;;;;;;22.87;13.47;;;;;;;22.35;56.51;100168.41;5072084;28;20180;-68
2022/10/11 11:03:57;;;;;;;13.67;12.50;;;;;;;22.40;56.22;100165.75;5069864;28;20599;-69
2022/10/11 11:06:35;;;;;;;14.67;13.50;;;;;;;22.30;56.10;100162.94;5071385;28;20253;-68
2022/10/11 11:09:14;;;;;;;15.93;14.23;;;;;;;22.15;56.47;100160.09;5070640;28;20180;-68
2022/10/11 11:11:53;;;;;;;14.73;13.20;;;;;;;21.93;57.57;100151.16;5070970;28;20572;-68
2022/10/11 11:14:33;;;;;;;34.13;15.53;;;;;;;21.85;57.38;100151.63;5072047;28;20241;-67
2022/10/11 11:17:11;;;;;;;18.43;14.10;;;;;;;21.87;57.46;100144.09;5070736;28;20267;-67
2022/10/11 11:19:50;;;;;;;20.93;14.37;;;;;;;21.86;57.95;100131.63;5071695;28;20188;-66
2022/10/11 11:22:27;;;;;;;20.13;14.63;;;;;;;21.71;57.78;100128.75;5060682;28;20200;-71
2022/10/11 11:25:05;;;;;;;20.70;15.10;;;;;;;21.62;58.25;100124.81;5052058;28;20211;-72
2022/10/11 11:27:46;;;;;;;24.03;14.23;;;;;;;21.61;58.73;100120.50;5070586;28;20210;-70
2022/10/11 11:30:19;;;;;;;18.47;13.30;;;;;;;21.62;58.27;100119.41;5060654;28;20271;-69